createdAt,value
2023-08-08T00:02:36.907Z,28.84
2023-08-08T00:07:39.200Z,28.96
2023-08-08T00:12:41.644Z,29.08
2023-08-08T00:17:44.046Z,28.84
2023-08-08T00:22:46.439Z,28.82
2023-08-08T00:27:48.851Z,28.94
2023-08-08T00:32:51.180Z,29.06
2023-08-08T00:37:53.380Z,28.69
2023-08-08T00:42:55.709Z,28.24
2023-08-08T00:47:58.054Z,29.01
2023-08-08T00:53:00.575Z,28.64
2023-08-08T00:58:02.866Z,28.52
2023-08-08T01:03:05.484Z,28.81
2023-08-08T01:08:09.330Z,29.19
2023-08-08T01:13:19.601Z,28.28
2023-08-08T01:18:22.132Z,28.21
2023-08-08T01:23:33.368Z,28.41
2023-08-08T01:28:36.235Z,28.35
2023-08-08T01:33:38.949Z,28.65
2023-08-08T01:38:48.332Z,28.77
2023-08-08T01:43:51.230Z,28.32
2023-08-08T01:48:53.630Z,27.99
2023-08-08T01:53:55.988Z,27.94
2023-08-08T01:58:58.340Z,28.73
2023-08-08T02:04:00.568Z,28.40
2023-08-08T02:09:02.903Z,27.96
2023-08-08T02:14:05.332Z,28.16
2023-08-08T02:19:07.762Z,27.66
2023-08-08T02:24:10.169Z,28.06
2023-08-08T02:29:12.480Z,27.74
2023-08-08T02:34:14.685Z,27.28
2023-08-08T02:39:17.108Z,27.35
2023-08-08T02:44:21.173Z,27.64
2023-08-08T02:49:23.594Z,27.85
2023-08-08T02:54:25.866Z,28.14
2023-08-08T02:59:28.940Z,27.80
2023-08-08T03:04:31.555Z,28.17
2023-08-08T03:09:33.863Z,27.86
2023-08-08T03:14:36.260Z,27.89
2023-08-08T03:19:38.625Z,28.03
2023-08-08T03:24:40.908Z,27.66
2023-08-08T03:29:43.331Z,28.02
2023-08-08T03:34:45.626Z,27.64
2023-08-08T03:39:48.382Z,27.60
2023-08-08T03:44:51.008Z,28.24
2023-08-08T03:49:56.869Z,27.71
2023-08-08T03:54:59.179Z,27.40
2023-08-08T04:00:01.887Z,27.88
2023-08-08T04:05:04.458Z,27.94
2023-08-08T04:10:07.460Z,27.52
2023-08-08T04:15:10.908Z,28.01
2023-08-08T04:20:14.087Z,27.47
2023-08-08T04:25:17.045Z,27.37
2023-08-08T04:30:19.858Z,27.89
2023-08-08T04:35:22.403Z,27.55
2023-08-08T04:40:28.960Z,27.81
2023-08-08T04:45:31.463Z,27.53
2023-08-08T04:50:33.921Z,27.69
2023-08-08T04:55:36.813Z,27.84
2023-08-08T05:00:39.385Z,28.13
2023-08-08T05:05:41.748Z,27.47
2023-08-08T05:10:44.111Z,27.74
2023-08-08T05:15:46.681Z,27.58
2023-08-08T05:20:48.910Z,28.04
2023-08-08T05:25:51.227Z,28.38
2023-08-08T05:30:53.553Z,28.37
2023-08-08T05:35:55.892Z,28.69
2023-08-08T05:40:58.150Z,28.28
2023-08-08T05:46:00.745Z,29.12
2023-08-08T05:51:06.343Z,28.92
2023-08-08T05:56:10.261Z,28.96
2023-08-08T06:01:13.304Z,28.73
2023-08-08T06:06:16.209Z,28.82
2023-08-08T06:11:18.466Z,28.96
2023-08-08T06:16:21.748Z,29.02
2023-08-08T06:21:24.046Z,28.77
2023-08-08T06:26:26.677Z,29.17
2023-08-08T06:31:29.296Z,28.65
2023-08-08T06:36:31.464Z,29.51
2023-08-08T06:41:34.148Z,29.32
2023-08-08T06:46:36.514Z,29.49
2023-08-08T06:51:39.423Z,29.75
2023-08-08T06:56:41.815Z,29.35
2023-08-08T07:01:44.398Z,30.02
2023-08-08T07:06:46.972Z,29.53
2023-08-08T07:11:49.446Z,29.83
2023-08-08T07:16:51.776Z,30.27
2023-08-08T07:21:53.959Z,30.07
2023-08-08T07:26:58.012Z,30.10
2023-08-08T07:32:04.524Z,30.09
2023-08-08T07:37:06.989Z,30.38
2023-08-08T07:42:09.239Z,30.58
2023-08-08T07:47:13.508Z,30.77
2023-08-08T07:52:16.028Z,30.72
2023-08-08T07:57:18.353Z,30.71
2023-08-08T08:02:20.757Z,30.72
2023-08-08T08:07:23.499Z,31.15
2023-08-08T08:12:25.789Z,31.24
2023-08-08T08:17:29.503Z,31.51
2023-08-08T08:22:31.745Z,31.43
2023-08-08T08:27:33.898Z,31.46
2023-08-08T08:32:36.533Z,31.60
2023-08-08T08:37:38.684Z,31.67
2023-08-08T08:42:45.125Z,31.61
2023-08-08T08:47:49.811Z,31.77
2023-08-08T08:52:52.363Z,31.78
2023-08-08T08:57:56.019Z,32.06
2023-08-08T09:02:58.454Z,32.12
2023-08-08T09:08:01.741Z,32.54
2023-08-08T09:13:06.799Z,32.61
2023-08-08T09:18:09.331Z,32.92
2023-08-08T09:23:11.556Z,32.98
2023-08-08T09:28:14.216Z,33.27
2023-08-08T09:33:16.448Z,33.27
2023-08-08T09:38:19.061Z,33.45
2023-08-08T09:43:22.007Z,33.55
2023-08-08T09:48:25.077Z,33.67
2023-08-08T09:53:31.973Z,33.64
2023-08-08T09:58:34.767Z,33.65
2023-08-08T10:03:39.385Z,33.71
2023-08-08T10:08:42.297Z,33.73
2023-08-08T10:13:51.980Z,33.92
2023-08-08T10:19:00.099Z,34.15
2023-08-08T10:24:12.326Z,34.03
2023-08-08T10:29:20.412Z,34.19
2023-08-08T10:34:25.541Z,34.24
2023-08-08T10:39:27.827Z,34.46
2023-08-08T10:44:30.146Z,34.56
2023-08-08T10:49:32.830Z,34.78
2023-08-08T10:54:35.519Z,34.74
2023-08-08T10:59:39.255Z,35.01
2023-08-08T11:04:42.832Z,35.04
2023-08-08T11:09:45.447Z,35.21
2023-08-08T11:14:47.619Z,35.40
2023-08-08T11:19:50.074Z,35.44
2023-08-08T11:24:53.352Z,35.31
2023-08-08T11:29:59.474Z,35.60
2023-08-08T11:35:02.394Z,35.54
2023-08-08T11:40:06.634Z,35.63
2023-08-08T11:45:11.114Z,35.75
2023-08-08T11:50:14.022Z,35.76
2023-08-08T11:55:17.079Z,35.43
2023-08-08T12:00:19.539Z,35.92
2023-08-08T12:05:23.846Z,36.15
2023-08-08T12:10:26.788Z,36.38
2023-08-08T12:15:33.936Z,36.36
2023-08-08T12:20:36.141Z,36.57
2023-08-08T12:25:38.960Z,36.78
2023-08-08T12:30:41.188Z,37.00
2023-08-08T12:35:43.384Z,37.03
2023-08-08T12:40:46.076Z,37.01
2023-08-08T12:45:49.260Z,36.90
2023-08-08T12:50:51.485Z,36.98
2023-08-08T12:55:53.751Z,37.18
2023-08-08T13:00:56.038Z,37.02
2023-08-08T13:05:58.209Z,37.23
2023-08-08T13:11:00.399Z,37.07
2023-08-08T13:16:02.761Z,37.45
2023-08-08T13:21:06.766Z,37.36
2023-08-08T13:26:09.107Z,37.30
2023-08-08T13:31:11.627Z,37.64
2023-08-08T13:36:13.953Z,37.74
2023-08-08T13:41:16.109Z,38.07
2023-08-08T13:46:18.412Z,38.07
2023-08-08T13:51:20.698Z,38.18
2023-08-08T13:56:23.557Z,38.30
2023-08-08T14:01:25.867Z,38.44
2023-08-08T14:06:28.661Z,38.49
2023-08-08T14:11:30.847Z,38.45
2023-08-08T14:16:34.004Z,38.65
2023-08-08T14:21:36.344Z,38.20
2023-08-08T14:26:38.658Z,38.09
2023-08-08T14:32:01.433Z,38.13
2023-08-08T14:37:03.351Z,38.24
2023-08-08T14:42:05.730Z,38.22
2023-08-08T14:47:08.131Z,38.04
2023-08-08T14:52:10.772Z,37.94
2023-08-08T14:57:13.009Z,38.23
2023-08-08T15:02:15.546Z,38.48
2023-08-08T15:07:18.018Z,38.63
2023-08-08T15:12:20.350Z,38.49
2023-08-08T15:17:22.605Z,38.36
2023-08-08T15:22:24.957Z,38.02
2023-08-08T15:27:27.168Z,37.80
2023-08-08T15:32:29.463Z,37.53
2023-08-08T15:37:31.729Z,37.55
2023-08-08T15:42:34.237Z,37.62
2023-08-08T15:47:36.602Z,37.74
2023-08-08T15:52:38.984Z,37.64
2023-08-08T15:57:41.276Z,37.69
2023-08-08T16:02:43.922Z,37.80
2023-08-08T16:07:46.383Z,37.68
2023-08-08T16:12:48.648Z,37.53
2023-08-08T16:17:50.909Z,37.49
2023-08-08T16:22:55.237Z,37.35
2023-08-08T16:27:57.624Z,36.94
2023-08-08T16:33:00.016Z,36.57
2023-08-08T16:38:02.249Z,36.37
2023-08-08T16:43:05.101Z,35.63
2023-08-08T16:48:07.671Z,35.82
2023-08-08T16:53:11.277Z,35.68
2023-08-08T16:58:13.456Z,35.60
2023-08-08T17:03:15.791Z,35.30
2023-08-08T17:08:18.106Z,35.24
2023-08-08T17:13:20.232Z,35.04
2023-08-08T17:18:22.461Z,34.77
2023-08-08T17:23:25.175Z,34.72
2023-08-08T17:28:27.300Z,34.33
2023-08-08T17:33:29.696Z,34.08
2023-08-08T17:38:31.806Z,33.98
2023-08-08T17:43:34.097Z,33.61
2023-08-08T17:48:36.294Z,33.50
2023-08-08T17:53:38.514Z,33.65
2023-08-08T17:58:45.830Z,33.62
2023-08-08T18:03:48.152Z,33.47
2023-08-08T18:08:50.567Z,33.33
2023-08-08T18:13:52.793Z,33.25
2023-08-08T18:18:54.893Z,33.09
2023-08-08T18:23:57.578Z,33.25
2023-08-08T18:28:59.754Z,33.15
2023-08-08T18:34:03.472Z,33.18
2023-08-08T18:39:07.500Z,33.09
2023-08-08T18:44:09.639Z,32.88
2023-08-08T18:49:13.367Z,32.77
2023-08-08T18:54:15.820Z,32.85
2023-08-08T18:59:17.960Z,32.82
2023-08-08T19:04:20.088Z,32.63
2023-08-08T19:09:22.333Z,32.76
2023-08-08T19:14:24.591Z,32.61
2023-08-08T19:19:26.923Z,32.45
2023-08-08T19:24:29.039Z,32.57
2023-08-08T19:29:31.179Z,32.50
2023-08-08T19:34:33.345Z,32.23
2023-08-08T19:39:36.212Z,32.31
2023-08-08T19:44:39.187Z,32.38
2023-08-08T19:49:41.415Z,32.17
2023-08-08T19:54:43.576Z,31.90
2023-08-08T19:59:45.823Z,31.92
2023-08-08T20:04:48.061Z,31.84
2023-08-08T20:09:50.274Z,31.82
2023-08-08T20:14:52.408Z,31.76
2023-08-08T20:19:55.472Z,31.56
2023-08-08T20:24:57.631Z,31.56
2023-08-08T20:29:59.851Z,31.48
2023-08-08T20:35:02.822Z,31.54
2023-08-08T20:40:05.341Z,31.56
2023-08-08T20:45:08.251Z,31.42
2023-08-08T20:50:10.945Z,31.36
2023-08-08T20:55:13.362Z,31.29
2023-08-08T21:00:15.657Z,31.38
2023-08-08T21:10:44.284Z,31.15
2023-08-08T21:15:46.636Z,31.20
2023-08-08T21:20:55.872Z,31.11
2023-08-08T21:25:58.066Z,31.11
2023-08-08T21:31:00.333Z,30.91
2023-08-08T21:36:02.785Z,30.98
2023-08-08T21:41:04.974Z,30.84
2023-08-08T21:46:07.208Z,30.85
2023-08-08T21:51:09.487Z,30.69
2023-08-08T21:56:11.703Z,30.73
2023-08-08T22:01:13.914Z,30.77
2023-08-08T22:06:16.462Z,30.83
2023-08-08T22:11:18.762Z,30.95
2023-08-08T22:16:21.295Z,31.07
2023-08-08T22:21:23.556Z,30.84
2023-08-08T22:26:25.810Z,30.98
2023-08-08T22:31:27.986Z,31.02
2023-08-08T22:36:31.234Z,30.92
2023-08-08T22:41:33.503Z,30.83
2023-08-08T22:46:35.745Z,30.74
2023-08-08T22:51:38.773Z,30.59
2023-08-08T22:56:42.410Z,30.60
2023-08-08T23:01:44.600Z,30.68
2023-08-08T23:06:46.768Z,30.65
2023-08-08T23:11:48.910Z,30.55
2023-08-08T23:16:53.735Z,30.56
2023-08-08T23:21:56.675Z,30.53
2023-08-08T23:26:58.977Z,30.49
2023-08-08T23:32:01.403Z,30.31
2023-08-08T23:37:03.955Z,30.27
2023-08-08T23:42:06.412Z,30.20
2023-08-08T23:47:10.283Z,30.03
2023-08-08T23:52:12.375Z,29.96
2023-08-08T23:57:14.597Z,29.99
